Time;durP1;ratioP1;P1;durP2;ratioP2;P2;SDS_P1;SDS_P2;PMS_P1;PMS_P2;Temp;Humidity;BMP_temperature;BMP_pressure;BME280_temperature;BME280_humidity;BME280_pressure;Samples;Min_cycle;Max_cycle;Signal;HPM_P1;HPM_P2
2023/12/17 00:01:26;;;;;;;20.75;10.40;;;10.60;99.90;;;;;;5048525;28;20040;-72
2023/12/17 00:03:52;;;;;;;16.48;9.20;;;10.60;99.90;;;;;;5047057;28;20047;-73
2023/12/17 00:06:18;;;;;;;15.68;8.55;;;10.60;99.90;;;;;;5047768;28;20021;-73
2023/12/17 00:08:45;;;;;;;14.43;8.07;;;10.60;99.90;;;;;;5048155;28;20032;-72
2023/12/17 00:11:11;;;;;;;13.18;7.93;;;10.60;99.90;;;;;;5047057;28;20517;-71
2023/12/17 00:13:37;;;;;;;14.82;8.05;;;10.60;99.90;;;;;;5048250;28;20057;-72
2023/12/17 00:16:04;;;;;;;14.23;8.60;;;10.60;99.90;;;;;;5047984;28;20027;-72
2023/12/17 00:18:29;;;;;;;15.73;8.38;;;10.70;99.90;;;;;;5048158;28;20036;-71
2023/12/17 00:20:55;;;;;;;16.15;9.85;;;10.60;99.90;;;;;;5047981;28;20375;-71
2023/12/17 00:23:21;;;;;;;22.30;10.63;;;10.70;99.90;;;;;;5046718;28;20043;-72
2023/12/17 00:25:46;;;;;;;19.05;10.95;;;10.70;99.90;;;;;;5047742;28;20025;-72
2023/12/17 00:28:12;;;;;;;18.88;10.82;;;10.70;99.90;;;;;;5048378;28;20032;-71
2023/12/17 00:30:38;;;;;;;19.08;10.63;;;10.70;99.90;;;;;;5046381;28;20025;-72
2023/12/17 00:33:03;;;;;;;19.13;10.55;;;10.70;99.90;;;;;;5048061;28;20017;-73
2023/12/17 00:35:29;;;;;;;17.40;9.38;;;10.70;99.90;;;;;;5046525;28;20029;-73
2023/12/17 00:37:55;;;;;;;14.88;8.25;;;10.70;99.90;;;;;;5046123;28;20049;-73
2023/12/17 00:40:21;;;;;;;15.57;8.07;;;10.60;99.90;;;;;;5047614;28;20095;-73
2023/12/17 00:42:46;;;;;;;13.18;6.82;;;10.70;99.90;;;;;;5047614;28;20055;-73
2023/12/17 00:45:12;;;;;;;13.35;7.95;;;10.70;99.90;;;;;;5047668;28;20032;-73
2023/12/17 00:47:38;;;;;;;16.50;7.72;;;10.70;99.90;;;;;;5047613;28;20437;-73
2023/12/17 00:50:04;;;;;;;11.02;6.80;;;10.60;99.90;;;;;;5047614;28;20021;-73
2023/12/17 00:52:29;;;;;;;15.10;7.45;;;10.70;99.90;;;;;;5047695;28;20013;-73
2023/12/17 00:54:55;;;;;;;14.23;7.63;;;10.60;99.90;;;;;;5047172;28;20036;-73
2023/12/17 00:57:21;;;;;;;13.02;8.07;;;10.70;99.90;;;;;;5047685;28;20522;-72
2023/12/17 00:59:46;;;;;;;13.65;8.63;;;10.60;99.90;;;;;;5046821;28;20028;-72
2023/12/17 01:02:12;;;;;;;14.35;8.32;;;10.60;99.90;;;;;;5047691;28;20032;-73
2023/12/17 01:04:38;;;;;;;13.20;8.30;;;10.70;99.90;;;;;;5045816;28;20052;-73
2023/12/17 01:07:04;;;;;;;15.30;8.23;;;10.70;99.90;;;;;;5047433;28;20517;-73
2023/12/17 01:09:30;;;;;;;14.50;9.10;;;10.70;99.90;;;;;;5047063;28;20070;-73
2023/12/17 01:11:57;;;;;;;13.80;8.77;;;10.70;99.90;;;;;;5047512;28;20470;-73
2023/12/17 01:14:24;;;;;;;15.45;8.90;;;10.70;99.90;;;;;;5047367;28;20035;-73
2023/12/17 01:16:50;;;;;;;14.68;9.05;;;10.70;99.90;;;;;;5047315;28;20025;-73
2023/12/17 01:19:16;;;;;;;16.55;8.65;;;10.70;99.90;;;;;;5046884;28;20025;-73
2023/12/17 01:21:41;;;;;;;13.82;8.40;;;10.70;99.90;;;;;;5044560;28;20440;-72
2023/12/17 01:24:07;;;;;;;12.93;7.90;;;10.70;99.90;;;;;;5046118;28;20052;-73
2023/12/17 01:26:34;;;;;;;14.35;7.78;;;10.70;99.90;;;;;;5047092;28;20025;-73
2023/12/17 01:29:00;;;;;;;12.80;7.57;;;10.70;99.90;;;;;;5047129;28;20021;-73
2023/12/17 01:31:25;;;;;;;13.23;7.60;;;10.70;99.90;;;;;;5047910;28;20032;-73
2023/12/17 01:33:51;;;;;;;12.48;7.57;;;10.70;99.90;;;;;;5046509;28;20025;-73
2023/12/17 01:36:17;;;;;;;12.70;7.68;;;10.70;99.90;;;;;;5046778;28;20525;-73
2023/12/17 01:38:43;;;;;;;13.25;6.78;;;10.70;99.90;;;;;;5046372;28;20036;-73
2023/12/17 01:41:08;;;;;;;11.73;6.93;;;10.70;99.90;;;;;;5046866;28;20021;-73
2023/12/17 01:43:34;;;;;;;10.25;6.65;;;10.70;99.90;;;;;;5046603;28;20493;-73
2023/12/17 01:46:00;;;;;;;14.20;7.57;;;10.70;99.90;;;;;;5046608;28;21374;-73
2023/12/17 01:48:26;;;;;;;11.23;7.20;;;10.70;99.90;;;;;;5046683;28;20031;-73
2023/12/17 01:50:54;;;;;;;10.27;7.00;;;10.60;99.90;;;;;;5045499;28;20035;-73
2023/12/17 01:53:21;;;;;;;12.63;7.10;;;10.70;99.90;;;;;;5045390;28;20032;-73
2023/12/17 01:55:49;;;;;;;10.30;6.53;;;10.70;99.90;;;;;;5046389;28;20569;-73
2023/12/17 01:58:15;;;;;;;11.27;6.72;;;10.70;99.90;;;;;;5046427;28;20497;-73
2023/12/17 02:00:41;;;;;;;11.68;7.00;;;10.60;99.90;;;;;;5046183;28;20021;-73
2023/12/17 02:03:07;;;;;;;11.25;6.93;;;10.60;99.90;;;;;;5046828;28;20462;-73
2023/12/17 02:05:33;;;;;;;10.32;6.43;;;10.60;99.90;;;;;;5046389;28;20516;-73
2023/12/17 02:08:00;;;;;;;10.48;6.03;;;10.70;99.90;;;;;;5046516;28;20048;-73
2023/12/17 02:10:26;;;;;;;9.63;5.88;;;10.70;99.90;;;;;;5046250;28;20024;-73
2023/12/17 02:12:52;;;;;;;10.65;6.00;;;10.70;99.90;;;;;;5046740;28;20036;-73
2023/12/17 02:15:18;;;;;;;8.70;5.53;;;10.60;99.90;;;;;;5044890;28;20029;-73
2023/12/17 02:17:44;;;;;;;11.15;6.53;;;10.70;99.90;;;;;;5046327;28;20021;-73
2023/12/17 02:20:10;;;;;;;13.10;6.55;;;10.70;99.90;;;;;;5046378;28;20186;-73
2023/12/17 02:22:37;;;;;;;9.95;6.45;;;10.70;99.90;;;;;;5046471;28;20053;-73
2023/12/17 02:25:02;;;;;;;12.00;6.55;;;10.70;99.90;;;;;;5046370;28;20029;-72
2023/12/17 02:27:28;;;;;;;13.15;6.85;;;10.70;99.90;;;;;;5046333;28;20398;-73
2023/12/17 02:29:55;;;;;;;13.70;7.60;;;10.70;99.90;;;;;;5044590;28;20478;-73
2023/12/17 02:32:22;;;;;;;12.52;7.32;;;10.70;99.90;;;;;;5046368;28;20010;-73
2023/12/17 02:34:48;;;;;;;17.63;8.45;;;10.70;99.90;;;;;;5046013;28;20029;-74
2023/12/17 02:37:14;;;;;;;15.25;8.63;;;10.70;99.90;;;;;;5046608;28;20066;-73
2023/12/17 02:39:40;;;;;;;15.68;9.52;;;10.70;99.90;;;;;;5049710;28;20021;-73
2023/12/17 02:42:06;;;;;;;22.65;10.18;;;10.70;99.90;;;;;;5048712;28;20036;-74
2023/12/17 02:44:32;;;;;;;18.95;10.52;;;10.70;99.90;;;;;;5049882;28;20429;-73
2023/12/17 02:46:58;;;;;;;17.80;9.93;;;10.70;99.90;;;;;;5049870;28;20028;-73
2023/12/17 02:49:27;;;;;;;16.10;9.23;;;10.70;99.90;;;;;;5049845;28;20104;-73
2023/12/17 02:51:54;;;;;;;16.17;9.48;;;10.70;99.90;;;;;;5049961;28;20021;-73
2023/12/17 02:54:21;;;;;;;15.57;9.35;;;10.70;99.90;;;;;;5049647;28;20025;-73
2023/12/17 02:56:47;;;;;;;15.45;9.35;;;10.80;99.90;;;;;;5049609;28;20145;-73
2023/12/17 02:59:13;;;;;;;15.60;9.32;;;10.80;99.90;;;;;;5049936;28;20211;-73
2023/12/17 03:01:43;;;;;;;18.35;8.77;;;10.70;99.90;;;;;;5049702;28;20021;-73
2023/12/17 03:04:10;;;;;;;12.45;7.80;;;10.80;99.90;;;;;;5049533;28;20499;-73
2023/12/17 03:06:37;;;;;;;20.30;9.52;;;10.70;99.90;;;;;;5048298;28;20028;-73
2023/12/17 03:09:03;;;;;;;16.40;8.18;;;10.80;99.90;;;;;;5047934;28;20025;-73
2023/12/17 03:11:28;;;;;;;17.63;9.10;;;10.70;99.90;;;;;;5049365;28;20025;-72
2023/12/17 03:13:54;;;;;;;13.43;8.02;;;10.70;99.90;;;;;;5047770;28;20177;-73
2023/12/17 03:16:20;;;;;;;13.07;7.68;;;10.70;99.90;;;;;;5049726;28;20028;-74
2023/12/17 03:18:46;;;;;;;15.55;8.05;;;10.70;99.90;;;;;;5049191;28;20040;-73
2023/12/17 03:21:12;;;;;;;14.27;7.47;;;10.70;99.90;;;;;;5049577;28;20025;-73
2023/12/17 03:23:38;;;;;;;15.82;7.80;;;10.70;99.90;;;;;;5049054;28;20016;-73
2023/12/17 03:26:04;;;;;;;14.68;7.22;;;10.70;99.90;;;;;;5049337;28;20044;-73
2023/12/17 03:28:29;;;;;;;12.80;6.28;;;10.70;99.90;;;;;;5049057;28;20501;-73
2023/12/17 03:30:55;;;;;;;17.40;6.80;;;10.70;99.90;;;;;;5047416;28;20029;-73
2023/12/17 03:33:21;;;;;;;13.98;6.95;;;10.70;99.90;;;;;;5049119;28;20025;-73
2023/12/17 03:35:46;;;;;;;18.02;7.25;;;10.70;99.90;;;;;;5047172;28;20033;-73
2023/12/17 03:38:13;;;;;;;12.45;6.85;;;10.70;99.90;;;;;;5049128;28;20043;-73
2023/12/17 03:40:39;;;;;;;16.55;6.57;;;10.70;99.90;;;;;;5047166;28;20029;-74
2023/12/17 03:43:04;;;;;;;16.10;8.00;;;10.70;99.90;;;;;;5049088;28;20027;-73
2023/12/17 03:45:31;;;;;;;16.10;7.38;;;10.70;99.90;;;;;;5047516;28;20107;-73
2023/12/17 03:47:57;;;;;;;14.00;7.50;;;10.70;99.90;;;;;;5048667;28;20025;-73
2023/12/17 03:50:23;;;;;;;12.43;7.03;;;10.70;99.90;;;;;;5047747;28;20021;-73
2023/12/17 03:52:49;;;;;;;13.02;6.50;;;10.70;99.90;;;;;;5048729;28;20025;-71
2023/12/17 03:55:15;;;;;;;12.32;6.88;;;10.70;99.90;;;;;;5048393;28;20070;-71
2023/12/17 03:57:41;;;;;;;8.68;5.32;;;10.70;99.90;;;;;;5048648;28;20018;-71
2023/12/17 04:00:10;;;;;;;12.85;6.47;;;10.60;99.90;;;;;;5048322;28;20104;-73
2023/12/17 04:02:36;;;;;;;11.52;6.43;;;10.60;99.90;;;;;;5048487;28;20454;-73
2023/12/17 04:05:01;;;;;;;10.82;5.90;;;10.60;99.90;;;;;;5046907;28;20017;-73
2023/12/17 04:07:29;;;;;;;11.88;6.68;;;10.60;99.90;;;;;;5048578;28;20021;-73
2023/12/17 04:09:55;;;;;;;11.40;5.82;;;10.60;99.90;;;;;;5048017;28;20028;-73
2023/12/17 04:12:21;;;;;;;13.43;6.70;;;10.60;99.90;;;;;;5048456;28;20402;-73
2023/12/17 04:14:47;;;;;;;16.15;7.85;;;10.60;99.90;;;;;;5048144;28;20025;-73
2023/12/17 04:17:12;;;;;;;16.52;8.20;;;10.60;99.90;;;;;;5048524;28;20386;-73
2023/12/17 04:19:38;;;;;;;17.80;8.98;;;10.60;99.90;;;;;;5048024;28;20032;-73
2023/12/17 04:22:03;;;;;;;18.30;10.32;;;10.50;99.90;;;;;;5048470;28;20021;-73
2023/12/17 04:24:29;;;;;;;18.52;9.73;;;10.50;99.90;;;;;;5047703;28;20110;-73
2023/12/17 04:26:55;;;;;;;15.70;9.02;;;10.50;99.90;;;;;;5048223;28;20021;-73
2023/12/17 04:29:20;;;;;;;14.15;8.88;;;10.50;99.90;;;;;;5046862;28;20013;-73
2023/12/17 04:31:46;;;;;;;18.67;9.60;;;10.50;99.90;;;;;;5046356;28;20040;-74
2023/12/17 04:34:12;;;;;;;16.77;9.05;;;10.50;99.90;;;;;;5047883;28;20475;-73
2023/12/17 04:36:41;;;;;;;17.27;9.63;;;10.50;99.90;;;;;;5047840;28;20048;-73
2023/12/17 04:39:07;;;;;;;13.52;6.78;;;10.40;99.90;;;;;;5041200;28;20916;-73
2023/12/17 04:41:33;;;;;;;14.35;6.90;;;10.40;99.90;;;;;;5047813;28;20053;-73
2023/12/17 04:43:59;;;;;;;9.27;4.35;;;10.40;99.90;;;;;;5047869;28;20044;-73
2023/12/17 04:46:25;;;;;;;14.80;5.15;;;10.40;99.90;;;;;;5047396;28;20021;-73
2023/12/17 04:48:51;;;;;;;22.08;8.82;;;10.40;99.90;;;;;;5047610;28;20021;-73
2023/12/17 04:51:17;;;;;;;20.20;9.60;;;10.40;99.90;;;;;;5047528;28;20027;-74
2023/12/17 04:53:42;;;;;;;20.13;9.48;;;10.50;99.90;;;;;;5047372;28;20029;-73
2023/12/17 04:56:08;;;;;;;18.77;10.18;;;10.50;99.90;;;;;;5047396;28;20029;-73
2023/12/17 04:58:34;;;;;;;19.65;11.05;;;10.50;99.90;;;;;;5047617;28;20557;-73
2023/12/17 05:01:00;;;;;;;18.80;10.63;;;10.50;99.90;;;;;;5047238;28;20070;-73
2023/12/17 05:03:26;;;;;;;25.10;12.80;;;10.50;99.90;;;;;;5046103;28;20036;-74
2023/12/17 05:05:52;;;;;;;24.30;12.30;;;10.40;99.90;;;;;;5045542;28;20095;-73
2023/12/17 05:08:18;;;;;;;20.80;11.10;;;10.40;99.90;;;;;;5047119;28;20108;-73
2023/12/17 05:10:44;;;;;;;24.33;13.02;;;10.40;99.90;;;;;;5045510;28;20017;-73
2023/12/17 05:13:10;;;;;;;25.00;12.00;;;10.40;99.90;;;;;;5047261;28;20044;-73
2023/12/17 05:15:35;;;;;;;24.05;11.80;;;10.40;99.90;;;;;;5045506;28;20028;-73
2023/12/17 05:18:01;;;;;;;28.67;14.27;;;10.40;99.90;;;;;;5047368;28;20422;-73
2023/12/17 05:20:27;;;;;;;24.23;13.13;;;10.40;99.90;;;;;;5046844;28;20396;-73
2023/12/17 05:22:53;;;;;;;27.08;13.25;;;10.40;99.90;;;;;;5046802;28;20037;-73
2023/12/17 05:25:18;;;;;;;26.20;14.20;;;10.40;99.90;;;;;;5046683;28;20032;-73
2023/12/17 05:27:44;;;;;;;30.42;14.55;;;10.40;99.90;;;;;;5045504;28;20025;-73
2023/12/17 05:30:11;;;;;;;32.92;15.02;;;10.40;99.90;;;;;;5046710;28;20059;-73
2023/12/17 05:32:37;;;;;;;33.92;16.85;;;10.30;99.90;;;;;;5046921;28;20036;-74
2023/12/17 05:35:03;;;;;;;29.52;15.27;;;10.30;99.90;;;;;;5046532;28;20032;-73
2023/12/17 05:37:28;;;;;;;33.15;17.20;;;10.30;99.90;;;;;;5045442;28;20063;-73
2023/12/17 05:39:54;;;;;;;30.60;16.50;;;10.40;99.90;;;;;;5046173;28;20398;-73
2023/12/17 05:42:20;;;;;;;32.55;16.80;;;10.40;99.90;;;;;;5046839;28;20233;-73
2023/12/17 05:44:45;;;;;;;28.13;16.42;;;10.40;99.90;;;;;;5045190;28;20017;-73
2023/12/17 05:47:11;;;;;;;34.00;17.38;;;10.30;99.90;;;;;;5046690;28;20503;-73
2023/12/17 05:49:38;;;;;;;35.17;18.02;;;10.40;99.90;;;;;;5046452;28;20028;-73
2023/12/17 05:52:04;;;;;;;33.90;16.35;;;10.40;99.90;;;;;;5047150;28;20021;-73
2023/12/17 05:54:30;;;;;;;33.88;17.55;;;10.40;99.90;;;;;;5044903;28;20035;-73
2023/12/17 05:56:55;;;;;;;31.40;16.48;;;10.40;99.90;;;;;;5046404;28;20025;-73
2023/12/17 05:59:21;;;;;;;32.28;15.82;;;10.40;99.90;;;;;;5046456;28;20032;-73
2023/12/17 06:01:47;;;;;;;30.23;17.23;;;10.40;99.90;;;;;;5046542;28;20417;-73
2023/12/17 06:04:12;;;;;;;34.63;15.85;;;10.40;99.90;;;;;;5046345;28;20052;-73
2023/12/17 06:06:38;;;;;;;25.10;15.57;;;10.40;99.90;;;;;;5046429;28;20324;-73
2023/12/17 06:09:03;;;;;;;26.75;15.07;;;10.40;99.90;;;;;;5046303;28;20522;-73
2023/12/17 06:11:29;;;;;;;25.48;14.80;;;10.40;99.90;;;;;;5044871;28;20094;-73
2023/12/17 06:13:55;;;;;;;28.45;15.25;;;10.40;99.90;;;;;;5049847;28;20031;-73
2023/12/17 06:16:21;;;;;;;28.42;15.15;;;10.40;99.90;;;;;;5050465;28;20037;-73
2023/12/17 06:18:48;;;;;;;29.23;15.75;;;10.40;99.90;;;;;;5050585;28;20044;-73
2023/12/17 06:21:24;;;;;;;25.38;15.13;;;10.40;99.90;;;;;;5050197;28;20059;-73
2023/12/17 06:23:51;;;;;;;27.75;15.73;;;10.40;99.90;;;;;;5036640;28;20025;-73
2023/12/17 06:26:20;;;;;;;25.52;15.18;;;10.40;99.90;;;;;;5048678;28;20040;-73
2023/12/17 06:28:46;;;;;;;30.70;16.15;;;10.40;99.90;;;;;;5050369;28;20025;-73
2023/12/17 06:31:12;;;;;;;27.33;16.08;;;10.40;99.90;;;;;;5050008;28;20028;-73
2023/12/17 06:33:38;;;;;;;31.45;15.88;;;10.40;99.90;;;;;;5050348;28;20550;-73
2023/12/17 06:36:05;;;;;;;36.33;17.75;;;10.40;99.90;;;;;;5048442;28;20254;-73
2023/12/17 06:38:31;;;;;;;32.85;18.00;;;10.40;99.90;;;;;;5049905;28;20036;-73
2023/12/17 06:40:56;;;;;;;33.75;16.70;;;10.40;99.90;;;;;;5048558;28;20021;-73
2023/12/17 06:43:22;;;;;;;28.45;16.75;;;10.40;99.90;;;;;;5050611;28;20607;-73
2023/12/17 06:45:48;;;;;;;34.63;17.65;;;10.40;99.90;;;;;;5049960;28;20063;-73
2023/12/17 06:48:14;;;;;;;33.05;18.15;;;10.40;99.90;;;;;;5050225;28;20048;-73
2023/12/17 06:50:39;;;;;;;30.15;17.90;;;10.40;99.90;;;;;;5048484;28;20507;-73
2023/12/17 06:53:05;;;;;;;29.85;17.60;;;10.40;99.90;;;;;;5049924;28;20793;-73
2023/12/17 06:55:30;;;;;;;29.23;16.00;;;10.30;99.90;;;;;;5050217;28;20052;-73
2023/12/17 06:57:56;;;;;;;29.42;16.25;;;10.30;99.90;;;;;;5049172;28;20028;-73
2023/12/17 07:00:22;;;;;;;32.08;16.38;;;10.30;99.90;;;;;;5049346;28;20594;-73
2023/12/17 07:02:47;;;;;;;27.70;16.05;;;10.30;99.90;;;;;;5049913;28;20031;-73
2023/12/17 07:05:13;;;;;;;28.77;16.65;;;10.30;99.90;;;;;;5049442;28;20494;-73
2023/12/17 07:07:39;;;;;;;29.10;16.85;;;10.30;99.90;;;;;;5049711;28;20024;-73
2023/12/17 07:10:07;;;;;;;29.15;15.85;;;10.30;99.90;;;;;;5047806;28;20025;-74
2023/12/17 07:12:32;;;;;;;31.73;16.70;;;10.30;99.90;;;;;;5048767;28;20082;-73
2023/12/17 07:14:58;;;;;;;29.48;18.23;;;10.30;99.90;;;;;;5046222;28;20037;-74
2023/12/17 07:17:24;;;;;;;30.88;17.58;;;10.30;99.90;;;;;;5048203;28;20020;-72
2023/12/17 07:19:49;;;;;;;33.67;18.20;;;10.30;99.90;;;;;;5047018;28;20534;-73
2023/12/17 07:22:16;;;;;;;31.15;17.90;;;10.20;99.90;;;;;;5049308;28;20019;-73
2023/12/17 07:24:42;;;;;;;31.45;18.48;;;10.20;99.90;;;;;;5047620;28;20388;-73
2023/12/17 07:27:08;;;;;;;33.00;18.02;;;10.20;99.90;;;;;;5049240;28;20494;-73
2023/12/17 07:29:33;;;;;;;27.63;16.65;;;10.20;99.90;;;;;;5044781;28;20029;-73
2023/12/17 07:31:59;;;;;;;31.17;17.85;;;10.20;99.90;;;;;;5032202;28;20512;-73
2023/12/17 07:34:24;;;;;;;32.88;19.48;;;10.30;99.90;;;;;;5049141;28;20040;-71
2023/12/17 07:36:50;;;;;;;35.47;18.60;;;10.20;99.90;;;;;;5048586;28;20136;-71
2023/12/17 07:39:18;;;;;;;32.50;18.90;;;10.20;99.90;;;;;;5049419;28;20032;-72
2023/12/17 07:41:44;;;;;;;33.47;18.75;;;10.20;99.90;;;;;;5048613;28;20545;-73
2023/12/17 07:44:09;;;;;;;43.92;22.20;;;10.20;99.90;;;;;;5047657;28;20027;-72
2023/12/17 07:46:35;;;;;;;42.78;22.75;;;10.20;99.90;;;;;;5048411;28;20017;-72
2023/12/17 07:49:01;;;;;;;49.05;24.25;;;10.20;99.90;;;;;;5048071;28;20056;-72
2023/12/17 07:51:26;;;;;;;51.58;25.95;;;10.20;99.90;;;;;;5047253;28;20116;-72
2023/12/17 07:53:52;;;;;;;56.67;26.80;;;10.20;99.90;;;;;;5049089;28;20083;-72
2023/12/17 07:56:18;;;;;;;51.33;25.58;;;10.10;99.90;;;;;;5048343;28;20029;-72
2023/12/17 07:58:43;;;;;;;53.92;26.25;;;10.10;99.90;;;;;;5047211;28;20545;-72
2023/12/17 08:01:09;;;;;;;56.47;27.15;;;10.10;99.90;;;;;;5048579;28;20059;-72
2023/12/17 08:03:35;;;;;;;47.30;24.45;;;10.10;99.90;;;;;;5048752;28;20044;-73
2023/12/17 08:06:01;;;;;;;48.53;24.42;;;10.00;99.90;;;;;;5048191;28;20021;-72
2023/12/17 08:08:27;;;;;;;46.97;23.45;;;10.00;99.90;;;;;;5048288;28;20508;-72
2023/12/17 08:10:53;;;;;;;40.28;20.73;;;10.00;99.90;;;;;;5048333;28;20392;-72
2023/12/17 08:13:19;;;;;;;37.05;20.05;;;10.00;99.90;;;;;;5048950;28;20013;-72
2023/12/17 08:15:44;;;;;;;42.05;22.65;;;10.00;99.90;;;;;;5048119;28;20575;-72
2023/12/17 08:18:10;;;;;;;45.22;23.98;;;9.90;99.90;;;;;;5036722;28;20943;-72
2023/12/17 08:20:36;;;;;;;40.70;23.83;;;9.90;99.90;;;;;;5036825;28;20038;-72
2023/12/17 08:23:01;;;;;;;39.58;23.30;;;9.90;99.90;;;;;;5036850;28;20021;-71
2023/12/17 08:25:27;;;;;;;38.53;22.30;;;9.90;99.90;;;;;;5043792;28;20655;-72
2023/12/17 08:27:53;;;;;;;41.33;21.00;;;9.90;99.90;;;;;;5044178;28;20108;-72
2023/12/17 08:30:18;;;;;;;35.15;20.48;;;9.90;99.90;;;;;;5047259;28;20021;-72
2023/12/17 08:32:45;;;;;;;33.47;19.77;;;9.80;99.90;;;;;;5032617;28;20159;-72
2023/12/17 08:35:11;;;;;;;33.92;19.73;;;9.80;99.90;;;;;;5042802;28;20013;-72
2023/12/17 08:37:37;;;;;;;29.90;17.90;;;9.80;99.90;;;;;;5047820;28;20207;-72
2023/12/17 08:40:03;;;;;;;31.20;19.55;;;9.80;99.90;;;;;;5042493;28;20024;-72
2023/12/17 08:42:29;;;;;;;34.60;18.40;;;9.80;99.90;;;;;;5047944;28;20028;-72
2023/12/17 08:44:55;;;;;;;32.15;18.67;;;9.90;99.90;;;;;;5044313;28;20892;-72
2023/12/17 08:47:20;;;;;;;35.03;19.05;;;9.90;99.90;;;;;;5045699;28;20059;-72
2023/12/17 08:49:46;;;;;;;32.80;18.08;;;9.80;99.90;;;;;;5046094;28;20485;-72
2023/12/17 08:52:12;;;;;;;33.08;18.55;;;9.90;99.90;;;;;;5047814;28;20064;-72
2023/12/17 08:54:38;;;;;;;31.75;18.35;;;9.80;99.90;;;;;;5040715;28;20025;-72
2023/12/17 08:57:04;;;;;;;33.75;16.95;;;9.80;99.90;;;;;;5047438;28;20116;-72
2023/12/17 08:59:29;;;;;;;30.98;18.02;;;9.80;99.90;;;;;;5044728;28;20028;-72
2023/12/17 09:01:55;;;;;;;29.38;17.52;;;9.80;99.90;;;;;;5034910;28;20029;-72
2023/12/17 09:04:20;;;;;;;27.80;16.25;;;9.80;99.90;;;;;;5047476;28;20048;-72
2023/12/17 09:06:48;;;;;;;28.35;15.63;;;9.80;99.90;;;;;;5040579;28;20501;-72
2023/12/17 09:09:14;;;;;;;28.38;15.57;;;9.70;99.90;;;;;;5043430;28;20053;-72
2023/12/17 09:11:41;;;;;;;26.95;16.23;;;9.80;99.90;;;;;;5042446;28;20020;-72
2023/12/17 09:14:07;;;;;;;25.05;15.15;;;9.80;99.90;;;;;;5047592;28;20029;-72
2023/12/17 09:16:37;;;;;;;29.70;16.23;;;9.80;99.90;;;;;;5046751;28;20025;-72
2023/12/17 09:19:03;;;;;;;25.52;15.88;;;9.80;99.90;;;;;;5047918;28;20086;-72
2023/12/17 09:21:29;;;;;;;29.70;15.68;;;9.80;99.90;;;;;;5047020;28;20024;-72
2023/12/17 09:23:54;;;;;;;27.33;16.52;;;9.80;99.90;;;;;;5044607;28;20060;-72
2023/12/17 09:26:20;;;;;;;24.73;14.98;;;9.80;99.90;;;;;;5046553;28;20051;-72
2023/12/17 09:28:47;;;;;;;25.08;15.40;;;9.80;99.90;;;;;;5044668;28;20186;-72
2023/12/17 09:31:13;;;;;;;25.02;14.80;;;9.80;99.90;;;;;;5043033;28;20029;-72
2023/12/17 09:33:39;;;;;;;21.17;13.57;;;9.80;99.90;;;;;;5043704;28;20513;-72
2023/12/17 09:36:06;;;;;;;18.75;12.55;;;9.80;99.90;;;;;;5040158;28;20059;-72
2023/12/17 09:38:32;;;;;;;19.65;11.93;;;9.80;99.90;;;;;;5045171;28;20556;-72
2023/12/17 09:40:58;;;;;;;22.45;12.75;;;9.70;99.90;;;;;;5043948;28;20116;-72
2023/12/17 09:43:25;;;;;;;21.73;13.88;;;9.70;99.90;;;;;;5045087;28;20025;-72
2023/12/17 09:45:51;;;;;;;18.92;13.40;;;9.70;99.90;;;;;;5043040;28;20063;-72
2023/12/17 09:48:17;;;;;;;21.45;13.40;;;9.80;99.90;;;;;;5044140;28;20032;-72
2023/12/17 09:50:44;;;;;;;21.23;13.15;;;9.70;99.90;;;;;;5044512;28;20505;-72
2023/12/17 09:53:09;;;;;;;23.48;13.68;;;9.70;99.90;;;;;;5045022;28;20082;-72
2023/12/17 09:55:36;;;;;;;23.90;14.00;;;9.70;99.90;;;;;;5043282;28;20494;-72
2023/12/17 09:58:03;;;;;;;25.00;15.23;;;9.70;99.90;;;;;;5044850;28;20487;-72
2023/12/17 10:00:29;;;;;;;24.33;14.15;;;9.70;99.90;;;;;;5045422;28;20043;-72
2023/12/17 10:03:04;;;;;;;25.33;14.50;;;9.70;99.90;;;;;;5046525;28;20314;-72
2023/12/17 10:05:31;;;;;;;25.30;14.85;;;9.70;99.90;;;;;;5046090;28;20029;-73
2023/12/17 10:07:57;;;;;;;23.08;14.48;;;9.70;99.90;;;;;;5045767;28;20029;-72
2023/12/17 10:10:23;;;;;;;21.48;13.27;;;9.70;99.90;;;;;;5046593;28;20063;-72
2023/12/17 10:12:50;;;;;;;19.55;12.30;;;9.70;99.90;;;;;;5046128;28;20058;-72
2023/12/17 10:15:17;;;;;;;19.95;12.68;;;9.70;99.90;;;;;;5044096;28;20021;-72
2023/12/17 10:17:43;;;;;;;19.42;11.90;;;9.70;99.90;;;;;;5045829;28;20107;-72
2023/12/17 10:20:09;;;;;;;20.42;13.15;;;9.60;99.90;;;;;;5041067;28;20029;-72
2023/12/17 10:22:34;;;;;;;18.63;11.70;;;9.50;99.90;;;;;;5046090;28;20040;-72
2023/12/17 10:25:00;;;;;;;20.20;11.68;;;9.50;99.90;;;;;;5044608;28;20489;-72
2023/12/17 10:27:27;;;;;;;19.15;11.45;;;9.40;99.90;;;;;;5039211;28;20513;-70
2023/12/17 10:29:53;;;;;;;19.75;11.98;;;9.40;99.90;;;;;;5040218;28;20048;-72
2023/12/17 10:32:24;;;;;;;20.85;12.02;;;9.30;99.90;;;;;;5045751;28;20070;-72
2023/12/17 10:34:53;;;;;;;20.27;13.13;;;9.30;99.90;;;;;;5046364;28;20112;-72
2023/12/17 10:37:21;;;;;;;21.92;14.57;;;9.30;99.90;;;;;;5045101;28;20789;-72
2023/12/17 10:39:51;;;;;;;19.30;13.23;;;9.30;99.90;;;;;;5046142;28;20032;-72
2023/12/17 10:42:18;;;;;;;18.42;11.35;;;9.30;99.90;;;;;;5043788;28;20495;-72
2023/12/17 10:44:47;;;;;;;17.95;12.02;;;9.20;99.90;;;;;;5045887;28;20036;-72
2023/12/17 10:47:20;;;;;;;18.63;13.55;;;9.30;99.90;;;;;;5045156;28;20442;-72
2023/12/17 10:49:47;;;;;;;16.02;11.23;;;9.20;99.90;;;;;;5044431;28;20482;-72
2023/12/17 10:52:12;;;;;;;19.35;12.98;;;9.20;99.90;;;;;;5046038;28;20025;-72
2023/12/17 10:54:39;;;;;;;17.33;11.63;;;9.30;99.90;;;;;;5042752;28;20029;-71
2023/12/17 10:57:15;;;;;;;17.67;12.50;;;9.30;99.90;;;;;;5037715;28;20533;-73
2023/12/17 10:59:48;;;;;;;20.17;12.75;;;9.20;99.90;;;;;;5045922;28;20099;-73
2023/12/17 11:02:17;;;;;;;19.25;12.07;;;9.20;99.90;;;;;;5049096;28;20021;-72
2023/12/17 11:04:46;;;;;;;19.27;12.73;;;9.20;99.90;;;;;;5049447;28;20056;-72
2023/12/17 11:07:21;;;;;;;21.58;13.32;;;9.20;99.90;;;;;;5048911;28;20024;-72
2023/12/17 11:09:47;;;;;;;21.88;13.32;;;9.20;99.90;;;;;;5049061;28;20029;-72
2023/12/17 11:12:12;;;;;;;22.98;14.20;;;9.20;99.90;;;;;;5045464;28;20024;-72
2023/12/17 11:14:42;;;;;;;22.45;13.38;;;9.20;99.90;;;;;;5048934;28;20059;-72
2023/12/17 11:17:11;;;;;;;21.85;13.65;;;9.20;99.90;;;;;;5043137;28;20035;-72
2023/12/17 11:19:59;;;;;;;22.85;13.55;;;9.10;99.90;;;;;;5049110;28;20120;-72
2023/12/17 11:22:25;;;;;;;24.60;14.63;;;9.10;99.90;;;;;;5042055;28;20584;-72
2023/12/17 11:25:00;;;;;;;22.95;14.13;;;9.10;99.90;;;;;;5043589;28;20017;-72
2023/12/17 11:27:26;;;;;;;25.80;14.63;;;9.10;99.90;;;;;;5048338;28;20031;-72
2023/12/17 11:29:55;;;;;;;26.13;14.90;;;9.10;99.90;;;;;;5049091;28;20025;-73
2023/12/17 11:32:26;;;;;;;27.88;15.60;;;9.10;99.90;;;;;;5046554;28;20116;-72
2023/12/17 11:34:52;;;;;;;;;;;9.10;99.90;;;;;;5048104;28;20029;-72
2023/12/17 11:37:23;;;;;;;24.73;15.63;;;9.10;99.90;;;;;;5046694;28;19921;-72
2023/12/17 11:39:50;;;;;;;27.05;16.98;;;9.10;99.90;;;;;;5048879;28;20098;-72
2023/12/17 11:42:18;;;;;;;28.65;17.52;;;9.20;99.90;;;;;;5046895;28;20521;-72
2023/12/17 11:44:59;;;;;;;25.23;15.05;;;9.10;99.90;;;;;;5048729;28;20037;-72
2023/12/17 11:47:26;;;;;;;;;;;9.20;99.90;;;;;;5042482;28;20518;-72
2023/12/17 11:49:58;;;;;;;29.55;17.02;;;9.20;99.90;;;;;;5048270;28;19905;-72
2023/12/17 11:52:25;;;;;;;36.72;16.98;;;9.20;99.90;;;;;;5045981;28;20056;-72
2023/12/17 11:54:58;;;;;;;30.27;17.10;;;9.30;99.90;;;;;;5048774;28;20120;-72
2023/12/17 11:57:24;;;;;;;31.52;18.00;;;9.30;99.90;;;;;;5042372;28;20037;-72
2023/12/17 11:59:50;;;;;;;32.38;18.90;;;9.30;99.90;;;;;;5034420;28;20119;-71
2023/12/17 12:02:17;;;;;;;34.10;17.58;;;9.40;99.90;;;;;;5038863;28;20486;-72
2023/12/17 12:04:44;;;;;;;26.42;16.45;;;9.40;99.90;;;;;;5036998;28;20026;-72
2023/12/17 12:07:11;;;;;;;30.88;18.95;;;9.50;99.90;;;;;;5029235;28;20028;-72
2023/12/17 12:09:37;;;;;;;29.42;17.50;;;9.60;99.90;;;;;;5043293;28;20025;-71
2023/12/17 12:12:25;;;;;;;28.13;18.00;;;9.70;99.90;;;;;;5042195;28;20036;-72
2023/12/17 12:14:51;;;;;;;33.92;18.27;;;9.80;99.90;;;;;;5043435;28;20076;-72
2023/12/17 12:17:39;;;;;;;31.63;17.85;;;9.90;99.90;;;;;;5036566;28;20029;-72
2023/12/17 12:20:12;;;;;;;28.73;17.83;;;9.90;99.90;;;;;;5035749;28;20028;-72
2023/12/17 12:22:42;;;;;;;30.58;17.45;;;9.90;99.90;;;;;;5038853;28;20029;-72
2023/12/17 12:25:08;;;;;;;31.65;18.05;;;10.00;99.90;;;;;;5037582;28;20014;-72
2023/12/17 12:27:34;;;;;;;31.80;18.65;;;10.10;99.90;;;;;;5029032;28;20037;-72
2023/12/17 12:30:00;;;;;;;28.58;17.33;;;10.10;99.90;;;;;;5033103;28;20393;-72
2023/12/17 12:32:33;;;;;;;31.10;18.15;;;10.20;99.90;;;;;;5037963;28;20024;-72